PWSweather.com
Personal Weather Stations
Station Observations
CANDIOTINO
Barrio Candioti Norte, Santa FeAR 3000

Barrio Candioti NorteSanta FeAR 3000

Lat: -31.632778, Lon: -60.695556

Elevation: 69

Station Type: WH-1081

http://www.eltiempoensantafe.com.ar

High Low Average
Temperature 54.0°F12.2°C 47.7°F8.7°C 51.2°F10.7°C
Dew Point 50.5°F10.3°C 40.7°F4.8°C 43.9°F6.6°C
Winds 21.3 mph 34.3 kmh 2.2 mph 3.5 kmh 8.0 mph SW12.9 kmh SW
Wind Gusts 32.7 mph52.6 kmh 8.3 mph13.4 kmh 19.0 mph30.6 kmh
Humidity 96% 64% 76%
Pressure 30.16 in1021.3 mb 29.91 in1012.9 mb -
Precipitation 0.34 in8.6 mm - -
Hour Temp Dew Point Humidity Winds Wind Gusts Pressure Precip Precip Rate Daily Precip Total
12:00 AM 52.0°F11.1°C 49.4°F9.7°C 91% 10.7 mph S17.2 kmh S 21.3 mph34.3 kmh 29.93 in1013.5 mb 0.02 in0.5 mm 0.00 in0.0 mm 0.02 in0.5 mm
12:15 AM 51.8°F11.0°C 49.6°F9.8°C 92% 9.8 mph S15.8 kmh S 19.7 mph31.7 kmh 29.93 in1013.5 mb 0.06 in1.5 mm 0.16 in4.1 mm 0.04 in1.0 mm
12:30 AM 51.6°F10.9°C 50.0°F10.0°C 94% 6.0 mph SW9.7 kmh SW 12.1 mph19.5 kmh 29.94 in1013.9 mb 0.26 in6.6 mm 0.80 in20.3 mm 0.25 in6.4 mm
12:45 AM 51.3°F10.7°C 49.9°F9.9°C 95% 6.9 mph S11.1 kmh S 15.9 mph25.6 kmh 29.96 in1014.6 mb 0.33 in8.4 mm 0.28 in7.1 mm 0.32 in8.1 mm
01:00 AM 51.4°F10.8°C 50.3°F10.2°C 96% 7.6 mph S12.2 kmh S 17.4 mph28.0 kmh 29.94 in1013.9 mb 0.33 in8.4 mm 0.00 in0.0 mm 0.33 in8.4 mm
01:15 AM 51.6°F10.9°C 50.5°F10.3°C 96% 6.0 mph S9.7 kmh S 16.8 mph27.0 kmh 29.97 in1014.9 mb 0.30 in7.6 mm 0.00 in0.0 mm 0.33 in8.4 mm
01:30 AM 51.6°F10.9°C 50.5°F10.3°C 96% 3.1 mph SW5.0 kmh SW 15.2 mph24.5 kmh 29.97 in1014.9 mb 0.08 in2.0 mm 0.00 in0.0 mm 0.33 in8.4 mm
01:45 AM 51.6°F10.9°C 50.5°F10.3°C 96% 6.9 mph SW11.1 kmh SW 13.6 mph21.9 kmh 29.98 in1015.2 mb 0.01 in0.3 mm 0.00 in0.0 mm 0.33 in8.4 mm
02:00 AM 51.4°F10.8°C 50.1°F10.1°C 95% 10.7 mph SSW17.2 kmh SSW 15.2 mph24.5 kmh 29.95 in1014.2 mb 0.00 in0.0 mm 0.00 in0.0 mm 0.33 in8.4 mm
02:15 AM 51.6°F10.9°C 50.0°F10.0°C 94% 6.9 mph SW11.1 kmh SW 10.7 mph17.2 kmh 29.97 in1014.9 mb 0.00 in0.0 mm 0.00 in0.0 mm 0.33 in8.4 mm
02:30 AM 51.6°F10.9°C 49.7°F9.8°C 93% 5.4 mph S8.7 kmh S 14.5 mph23.3 kmh 29.96 in1014.6 mb 0.00 in0.0 mm 0.00 in0.0 mm 0.33 in8.4 mm
02:45 AM 51.6°F10.9°C 49.7°F9.8°C 93% 3.1 mph SW5.0 kmh SW 9.8 mph15.8 kmh 29.96 in1014.6 mb 0.00 in0.0 mm 0.00 in0.0 mm 0.33 in8.4 mm
03:00 AM 51.6°F10.9°C 49.1°F9.5°C 91% 3.8 mph SSW6.1 kmh SSW 9.8 mph15.8 kmh 29.95 in1014.2 mb 0.00 in0.0 mm 0.00 in0.0 mm 0.33 in8.4 mm
03:15 AM 51.8°F11.0°C 48.4°F9.1°C 88% 3.1 mph S5.0 kmh S 11.4 mph18.3 kmh 29.93 in1013.5 mb 0.00 in0.0 mm 0.00 in0.0 mm 0.33 in8.4 mm
03:30 AM 51.8°F11.0°C 47.8°F8.8°C 86% 4.5 mph SSW7.2 kmh SSW 8.3 mph13.4 kmh 29.91 in1012.9 mb 0.00 in0.0 mm 0.00 in0.0 mm 0.33 in8.4 mm
03:45 AM 51.8°F11.0°C 47.4°F8.6°C 85% 2.2 mph SW3.5 kmh SW 9.8 mph15.8 kmh 29.93 in1013.5 mb 0.01 in0.3 mm 0.04 in1.0 mm 0.34 in8.6 mm
04:00 AM 51.8°F11.0°C 46.8°F8.2°C 83% 3.8 mph WNW6.1 kmh WNW 11.4 mph18.3 kmh 29.95 in1014.2 mb 0.01 in0.3 mm 0.00 in0.0 mm 0.34 in8.6 mm
04:15 AM 51.8°F11.0°C 46.8°F8.2°C 83% 3.8 mph W6.1 kmh W 10.7 mph17.2 kmh 29.95 in1014.2 mb 0.01 in0.3 mm 0.00 in0.0 mm 0.34 in8.6 mm
04:30 AM 51.6°F10.9°C 46.9°F8.3°C 84% 6.9 mph WSW11.1 kmh WSW 9.8 mph15.8 kmh 29.94 in1013.9 mb 0.01 in0.3 mm 0.00 in0.0 mm 0.34 in8.6 mm
04:45 AM 51.3°F10.7°C 46.3°F7.9°C 83% 3.8 mph WNW6.1 kmh WNW 12.1 mph19.5 kmh 29.94 in1013.9 mb 0.00 in0.0 mm 0.00 in0.0 mm 0.34 in8.6 mm
05:00 AM 51.3°F10.7°C 46.3°F7.9°C 83% 6.9 mph W11.1 kmh W 11.4 mph18.3 kmh 29.95 in1014.2 mb 0.00 in0.0 mm 0.00 in0.0 mm 0.34 in8.6 mm
05:15 AM 50.9°F10.5°C 45.9°F7.7°C 83% 4.5 mph WNW7.2 kmh WNW 11.4 mph18.3 kmh 29.96 in1014.6 mb 0.00 in0.0 mm 0.00 in0.0 mm 0.34 in8.6 mm
05:30 AM 50.7°F10.4°C 45.8°F7.7°C 83% 5.4 mph NW8.7 kmh NW 13.0 mph20.9 kmh 29.96 in1014.6 mb 0.00 in0.0 mm 0.00 in0.0 mm 0.34 in8.6 mm
05:45 AM 50.7°F10.4°C 44.5°F6.9°C 79% 6.9 mph W11.1 kmh W 16.8 mph27.0 kmh 29.97 in1014.9 mb 0.00 in0.0 mm 0.00 in0.0 mm 0.34 in8.6 mm
06:00 AM 50.5°F10.3°C 43.3°F6.3°C 76% 9.8 mph W15.8 kmh W 19.0 mph30.6 kmh 29.98 in1015.2 mb 0.00 in0.0 mm 0.00 in0.0 mm 0.34 in8.6 mm
06:15 AM 50.0°F10.0°C 42.0°F5.6°C 74% 10.7 mph W17.2 kmh W 17.4 mph28.0 kmh 29.99 in1015.6 mb 0.00 in0.0 mm 0.00 in0.0 mm 0.34 in8.6 mm
06:30 AM 49.1°F9.5°C 41.5°F5.3°C 75% 9.2 mph WSW14.8 kmh WSW 19.7 mph31.7 kmh 30.00 in1015.9 mb 0.00 in0.0 mm 0.00 in0.0 mm 0.34 in8.6 mm
06:45 AM 48.6°F9.2°C 41.0°F5.0°C 75% 5.4 mph WSW8.7 kmh WSW 15.9 mph25.6 kmh 30.00 in1015.9 mb 0.00 in0.0 mm 0.00 in0.0 mm 0.34 in8.6 mm
07:00 AM 48.4°F9.1°C 41.2°F5.1°C 76% 7.6 mph WSW12.2 kmh WSW 16.8 mph27.0 kmh 30.00 in1015.9 mb 0.00 in0.0 mm 0.00 in0.0 mm 0.34 in8.6 mm
07:15 AM 48.4°F9.1°C 41.2°F5.1°C 76% 6.9 mph WSW11.1 kmh WSW 15.9 mph25.6 kmh 29.99 in1015.6 mb 0.00 in0.0 mm 0.00 in0.0 mm 0.34 in8.6 mm
07:30 AM 48.0°F8.9°C 41.2°F5.1°C 77% 3.1 mph WSW5.0 kmh WSW 10.7 mph17.2 kmh 29.99 in1015.6 mb 0.00 in0.0 mm 0.00 in0.0 mm 0.34 in8.6 mm
07:45 AM 47.7°F8.7°C 41.1°F5.1°C 78% 4.5 mph W7.2 kmh W 15.2 mph24.5 kmh 30.00 in1015.9 mb 0.00 in0.0 mm 0.00 in0.0 mm 0.34 in8.6 mm
08:00 AM 47.7°F8.7°C 41.5°F5.3°C 79% 8.3 mph WSW13.4 kmh WSW 13.0 mph20.9 kmh 30.00 in1015.9 mb 0.00 in0.0 mm 0.00 in0.0 mm 0.34 in8.6 mm
08:15 AM 48.0°F8.9°C 41.8°F5.4°C 79% 5.4 mph WSW8.7 kmh WSW 9.8 mph15.8 kmh 30.02 in1016.6 mb 0.00 in0.0 mm 0.00 in0.0 mm 0.34 in8.6 mm
08:30 AM 47.7°F8.7°C 41.8°F5.4°C 80% 4.5 mph SW7.2 kmh SW 14.5 mph23.3 kmh 30.03 in1016.9 mb 0.00 in0.0 mm 0.00 in0.0 mm 0.34 in8.6 mm
08:45 AM 48.0°F8.9°C 42.5°F5.8°C 81% 7.6 mph WSW12.2 kmh WSW 13.0 mph20.9 kmh 30.02 in1016.6 mb 0.00 in0.0 mm 0.00 in0.0 mm 0.34 in8.6 mm
09:00 AM 48.9°F9.4°C 43.7°F6.5°C 82% 6.9 mph SW11.1 kmh SW 20.6 mph33.2 kmh 30.03 in1016.9 mb 0.00 in0.0 mm 0.00 in0.0 mm 0.34 in8.6 mm
09:15 AM 49.6°F9.8°C 44.1°F6.7°C 81% 7.6 mph WSW12.2 kmh WSW 19.0 mph30.6 kmh 30.04 in1017.3 mb 0.00 in0.0 mm 0.00 in0.0 mm 0.34 in8.6 mm
09:30 AM 50.2°F10.1°C 43.9°F6.6°C 79% 6.0 mph WSW9.7 kmh WSW 18.3 mph29.5 kmh 30.04 in1017.3 mb 0.00 in0.0 mm 0.00 in0.0 mm 0.34 in8.6 mm
09:45 AM 50.0°F10.0°C 43.8°F6.6°C 79% 7.6 mph W12.2 kmh W 18.3 mph29.5 kmh 30.06 in1017.9 mb 0.00 in0.0 mm 0.00 in0.0 mm 0.34 in8.6 mm
10:00 AM 50.4°F10.2°C 43.8°F6.6°C 78% 9.8 mph SSW15.8 kmh SSW 19.0 mph30.6 kmh 30.07 in1018.3 mb 0.00 in0.0 mm 0.00 in0.0 mm 0.34 in8.6 mm
10:15 AM 50.9°F10.5°C 44.3°F6.8°C 78% 8.3 mph SW13.4 kmh SW 16.8 mph27.0 kmh 30.08 in1018.6 mb 0.00 in0.0 mm 0.00 in0.0 mm 0.34 in8.6 mm
10:30 AM 51.4°F10.8°C 44.1°F6.7°C 76% 9.2 mph W14.8 kmh W 22.1 mph35.6 kmh 30.08 in1018.6 mb 0.00 in0.0 mm 0.00 in0.0 mm 0.34 in8.6 mm
10:45 AM 52.0°F11.1°C 43.6°F6.4°C 73% 9.8 mph WSW15.8 kmh WSW 20.6 mph33.2 kmh 30.08 in1018.6 mb 0.00 in0.0 mm 0.00 in0.0 mm 0.34 in8.6 mm
11:00 AM 51.8°F11.0°C 43.1°F6.2°C 72% 6.0 mph W9.7 kmh W 17.4 mph28.0 kmh 30.08 in1018.6 mb 0.00 in0.0 mm 0.00 in0.0 mm 0.34 in8.6 mm
11:15 AM 52.2°F11.2°C 43.4°F6.3°C 72% 10.7 mph WSW17.2 kmh WSW 16.8 mph27.0 kmh 30.08 in1018.6 mb 0.00 in0.0 mm 0.00 in0.0 mm 0.34 in8.6 mm
11:30 AM 52.0°F11.1°C 42.9°F6.1°C 71% 7.6 mph WSW12.2 kmh WSW 24.4 mph39.3 kmh 30.08 in1018.6 mb 0.00 in0.0 mm 0.00 in0.0 mm 0.34 in8.6 mm
11:45 AM 52.2°F11.2°C 42.7°F5.9°C 70% 8.3 mph SW13.4 kmh SW 24.4 mph39.3 kmh 30.09 in1019.0 mb 0.00 in0.0 mm 0.00 in0.0 mm 0.34 in8.6 mm
12:00 PM 52.3°F11.3°C 42.9°F6.1°C 70% 9.8 mph SW15.8 kmh SW 24.4 mph39.3 kmh 30.08 in1018.6 mb 0.00 in0.0 mm 0.00 in0.0 mm 0.34 in8.6 mm
12:15 PM 52.7°F11.5°C 42.4°F5.8°C 68% 7.6 mph WSW12.2 kmh WSW 27.3 mph43.9 kmh 30.07 in1018.3 mb 0.00 in0.0 mm 0.00 in0.0 mm 0.34 in8.6 mm
12:30 PM 53.1°F11.7°C 42.8°F6.0°C 68% 7.6 mph SW12.2 kmh SW 28.9 mph46.5 kmh 30.08 in1018.6 mb 0.00 in0.0 mm 0.00 in0.0 mm 0.34 in8.6 mm
12:45 PM 53.6°F12.0°C 42.1°F5.6°C 65% 9.8 mph WSW15.8 kmh WSW 22.8 mph36.7 kmh 30.08 in1018.6 mb 0.00 in0.0 mm 0.00 in0.0 mm 0.34 in8.6 mm
01:00 PM 53.8°F12.1°C 42.3°F5.7°C 65% 12.1 mph WSW19.5 kmh WSW 22.8 mph36.7 kmh 30.07 in1018.3 mb 0.00 in0.0 mm 0.00 in0.0 mm 0.34 in8.6 mm
01:15 PM 54.0°F12.2°C 42.1°F5.6°C 64% 14.5 mph SW23.3 kmh SW 27.3 mph43.9 kmh 30.07 in1018.3 mb 0.00 in0.0 mm 0.00 in0.0 mm 0.34 in8.6 mm
01:30 PM 54.0°F12.2°C 42.1°F5.6°C 64% 11.4 mph SW18.3 kmh SW 20.6 mph33.2 kmh 30.07 in1018.3 mb 0.00 in0.0 mm 0.00 in0.0 mm 0.34 in8.6 mm
01:45 PM 53.4°F11.9°C 42.0°F5.6°C 65% 21.3 mph WSW34.3 kmh WSW 32.7 mph52.6 kmh 30.05 in1017.6 mb 0.00 in0.0 mm 0.00 in0.0 mm 0.34 in8.6 mm
02:00 PM 54.0°F12.2°C 42.1°F5.6°C 64% 8.3 mph WSW13.4 kmh WSW 23.5 mph37.8 kmh 30.05 in1017.6 mb 0.00 in0.0 mm 0.00 in0.0 mm 0.34 in8.6 mm
02:15 PM 54.0°F12.2°C 42.1°F5.6°C 64% 8.3 mph SW13.4 kmh SW 23.5 mph37.8 kmh 30.05 in1017.6 mb 0.00 in0.0 mm 0.00 in0.0 mm 0.34 in8.6 mm
02:30 PM 53.4°F11.9°C 42.0°F5.6°C 65% 17.4 mph SW28.0 kmh SW 31.1 mph50.1 kmh 30.05 in1017.6 mb 0.00 in0.0 mm 0.00 in0.0 mm 0.34 in8.6 mm
02:45 PM 53.4°F11.9°C 42.0°F5.6°C 65% 10.7 mph SW17.2 kmh SW 30.4 mph48.9 kmh 30.06 in1017.9 mb 0.00 in0.0 mm 0.00 in0.0 mm 0.34 in8.6 mm
03:00 PM 53.2°F11.8°C 42.2°F5.7°C 66% 7.6 mph SW12.2 kmh SW 24.4 mph39.3 kmh 30.05 in1017.6 mb 0.00 in0.0 mm 0.00 in0.0 mm 0.34 in8.6 mm
03:15 PM 53.1°F11.7°C 42.0°F5.6°C 66% 6.0 mph SSW9.7 kmh SSW 27.3 mph43.9 kmh 30.06 in1017.9 mb 0.00 in0.0 mm 0.00 in0.0 mm 0.34 in8.6 mm
03:30 PM 53.1°F11.7°C 42.4°F5.8°C 67% 11.4 mph SW18.3 kmh SW 26.6 mph42.8 kmh 30.06 in1017.9 mb 0.00 in0.0 mm 0.00 in0.0 mm 0.34 in8.6 mm
03:45 PM 52.5°F11.4°C 42.7°F5.9°C 69% 15.2 mph SSW24.5 kmh SSW 25.9 mph41.7 kmh 30.06 in1017.9 mb 0.00 in0.0 mm 0.00 in0.0 mm 0.34 in8.6 mm
04:00 PM 52.3°F11.3°C 42.9°F6.1°C 70% 8.3 mph SW13.4 kmh SW 25.9 mph41.7 kmh 30.06 in1017.9 mb 0.00 in0.0 mm 0.00 in0.0 mm 0.34 in8.6 mm
04:15 PM 52.7°F11.5°C 42.8°F6.0°C 69% 12.1 mph SW19.5 kmh SW 27.3 mph43.9 kmh 30.06 in1017.9 mb 0.00 in0.0 mm 0.00 in0.0 mm 0.34 in8.6 mm
04:30 PM 52.9°F11.6°C 43.4°F6.3°C 70% 13.6 mph WSW21.9 kmh WSW 27.3 mph43.9 kmh 30.06 in1017.9 mb 0.00 in0.0 mm 0.00 in0.0 mm 0.34 in8.6 mm
04:45 PM 52.2°F11.2°C 43.1°F6.2°C 71% 7.6 mph SW12.2 kmh SW 30.4 mph48.9 kmh 30.07 in1018.3 mb 0.00 in0.0 mm 0.00 in0.0 mm 0.34 in8.6 mm
05:00 PM 52.5°F11.4°C 43.4°F6.3°C 71% 7.6 mph SW12.2 kmh SW 25.9 mph41.7 kmh 30.08 in1018.6 mb 0.00 in0.0 mm 0.00 in0.0 mm 0.34 in8.6 mm
05:15 PM 51.8°F11.0°C 42.7°F5.9°C 71% 6.0 mph SSW9.7 kmh SSW 22.1 mph35.6 kmh 30.07 in1018.3 mb 0.00 in0.0 mm 0.00 in0.0 mm 0.34 in8.6 mm
05:30 PM 51.8°F11.0°C 42.3°F5.7°C 70% 6.0 mph SW9.7 kmh SW 22.8 mph36.7 kmh 30.08 in1018.6 mb 0.00 in0.0 mm 0.00 in0.0 mm 0.34 in8.6 mm
05:45 PM 51.6°F10.9°C 42.9°F6.1°C 72% 6.0 mph WSW9.7 kmh WSW 25.1 mph40.4 kmh 30.08 in1018.6 mb 0.00 in0.0 mm 0.00 in0.0 mm 0.34 in8.6 mm
06:00 PM 51.8°F11.0°C 42.7°F5.9°C 71% 6.9 mph WSW11.1 kmh WSW 25.9 mph41.7 kmh 30.09 in1019.0 mb 0.00 in0.0 mm 0.00 in0.0 mm 0.34 in8.6 mm
06:15 PM 51.6°F10.9°C 43.3°F6.3°C 73% 11.4 mph SSW18.3 kmh SSW 23.5 mph37.8 kmh 30.11 in1019.6 mb 0.00 in0.0 mm 0.00 in0.0 mm 0.34 in8.6 mm
06:30 PM 50.0°F10.0°C 43.8°F6.6°C 79% 9.2 mph SW14.8 kmh SW 19.0 mph30.6 kmh 30.11 in1019.6 mb 0.00 in0.0 mm 0.00 in0.0 mm 0.34 in8.6 mm
06:45 PM 50.7°F10.4°C 44.1°F6.7°C 78% 6.0 mph SW9.7 kmh SW 17.4 mph28.0 kmh 30.10 in1019.3 mb 0.00 in0.0 mm 0.00 in0.0 mm 0.34 in8.6 mm
07:00 PM 51.3°F10.7°C 43.3°F6.3°C 74% 5.4 mph SW8.7 kmh SW 25.9 mph41.7 kmh 30.12 in1020.0 mb 0.00 in0.0 mm 0.00 in0.0 mm 0.34 in8.6 mm
07:15 PM 51.3°F10.7°C 42.9°F6.1°C 73% 9.2 mph SW14.8 kmh SW 25.9 mph41.7 kmh 30.14 in1020.7 mb 0.00 in0.0 mm 0.00 in0.0 mm 0.34 in8.6 mm
07:30 PM 50.2°F10.1°C 43.6°F6.4°C 78% 3.1 mph SSW5.0 kmh SSW 24.4 mph39.3 kmh 30.13 in1020.3 mb 0.00 in0.0 mm 0.00 in0.0 mm 0.34 in8.6 mm
07:45 PM 51.3°F10.7°C 43.3°F6.3°C 74% 5.4 mph SW8.7 kmh SW 17.4 mph28.0 kmh 30.13 in1020.3 mb 0.00 in0.0 mm 0.00 in0.0 mm 0.34 in8.6 mm
08:00 PM 51.8°F11.0°C 42.3°F5.7°C 70% 10.7 mph SW17.2 kmh SW 20.6 mph33.2 kmh 30.14 in1020.7 mb 0.00 in0.0 mm 0.00 in0.0 mm 0.34 in8.6 mm
08:15 PM 52.0°F11.1°C 41.8°F5.4°C 68% 6.9 mph S11.1 kmh S 20.6 mph33.2 kmh 30.13 in1020.3 mb 0.00 in0.0 mm 0.00 in0.0 mm 0.34 in8.6 mm
08:30 PM 52.0°F11.1°C 41.4°F5.2°C 67% 6.9 mph SW11.1 kmh SW 16.8 mph27.0 kmh 30.14 in1020.7 mb 0.00 in0.0 mm 0.00 in0.0 mm 0.34 in8.6 mm
08:45 PM 51.8°F11.0°C 41.2°F5.1°C 67% 8.3 mph SSW13.4 kmh SSW 22.8 mph36.7 kmh 30.15 in1021.0 mb 0.00 in0.0 mm 0.00 in0.0 mm 0.34 in8.6 mm
09:00 PM 51.6°F10.9°C 41.8°F5.4°C 69% 4.5 mph S7.2 kmh S 18.3 mph29.5 kmh 30.15 in1021.0 mb 0.00 in0.0 mm 0.00 in0.0 mm 0.34 in8.6 mm
09:15 PM 51.3°F10.7°C 41.4°F5.2°C 69% 5.4 mph SSW8.7 kmh SSW 16.8 mph27.0 kmh 30.15 in1021.0 mb 0.00 in0.0 mm 0.00 in0.0 mm 0.34 in8.6 mm
09:30 PM 50.9°F10.5°C 41.5°F5.3°C 70% 8.3 mph S13.4 kmh S 19.0 mph30.6 kmh 30.15 in1021.0 mb 0.00 in0.0 mm 0.00 in0.0 mm 0.34 in8.6 mm
09:45 PM 50.4°F10.2°C 41.3°F5.2°C 71% 4.5 mph SSW7.2 kmh SSW 14.5 mph23.3 kmh 30.15 in1021.0 mb 0.00 in0.0 mm 0.00 in0.0 mm 0.34 in8.6 mm
10:00 PM 50.0°F10.0°C 41.3°F5.2°C 72% 5.4 mph WSW8.7 kmh WSW 25.9 mph41.7 kmh 30.16 in1021.3 mb 0.00 in0.0 mm 0.00 in0.0 mm 0.34 in8.6 mm
10:15 PM 49.8°F9.9°C 41.5°F5.3°C 73% 6.9 mph SW11.1 kmh SW 23.5 mph37.8 kmh 30.16 in1021.3 mb 0.00 in0.0 mm 0.00 in0.0 mm 0.34 in8.6 mm
10:30 PM 49.5°F9.7°C 41.5°F5.3°C 74% 6.0 mph SW9.7 kmh SW 19.7 mph31.7 kmh 30.15 in1021.0 mb 0.00 in0.0 mm 0.00 in0.0 mm 0.34 in8.6 mm
10:45 PM 49.1°F9.5°C 41.2°F5.1°C 74% 6.9 mph SSW11.1 kmh SSW 20.6 mph33.2 kmh 30.15 in1021.0 mb 0.00 in0.0 mm 0.00 in0.0 mm 0.34 in8.6 mm
11:00 PM 48.6°F9.2°C 41.0°F5.0°C 75% 9.8 mph SW15.8 kmh SW 15.2 mph24.5 kmh 30.15 in1021.0 mb 0.00 in0.0 mm 0.00 in0.0 mm 0.34 in8.6 mm
11:15 PM 48.4°F9.1°C 40.8°F4.9°C 75% 9.2 mph S14.8 kmh S 18.3 mph29.5 kmh 30.14 in1020.7 mb 0.00 in0.0 mm 0.00 in0.0 mm 0.34 in8.6 mm
11:30 PM 48.2°F9.0°C 40.7°F4.8°C 75% 4.5 mph SSW7.2 kmh SSW 15.2 mph24.5 kmh 30.14 in1020.7 mb 0.00 in0.0 mm 0.00 in0.0 mm 0.34 in8.6 mm
11:45 PM 48.2°F9.0°C 40.7°F4.8°C 75% 8.3 mph SSW13.4 kmh SSW 15.2 mph24.5 kmh 30.15 in1021.0 mb 0.00 in0.0 mm 0.00 in0.0 mm 0.34 in8.6 mm